This is the latest recevied weather packets stored in our database for station/object CYHZ. If no packets are shown the sender has not sent any weather packets the latest 10 day(s).
| Time | Temp. | Humidity | Pressure | Rain* | Wind** | Luminosity | Snow |
|---|---|---|---|---|---|---|---|
| 1777426401 | 2.78° C | 86% | 1024 hPa | - | - | - | - |
| 1777422203 | 2.78° C | 86% | 1024 hPa | - | - | - | - |
| 1777421601 | 2.78° C | 86% | 1024 hPa | - | - | - | - |
| 1777415605 | 6.67° C | 56% | 1024 hPa | - | - | - | - |
| 1777414401 | 6.67° C | 56% | 1024 hPa | - | - | - | - |
| 1777410201 | 10° C | - | 1021.3 hPa | - | - | - | - |
| 1777407926 | 10° C | - | 1021.3 hPa | - | - | - | - |
| 1777393999 | 10° C | 37% | 1026.1 hPa | - | - | - | - |
| 1777388000 | 8.89° C | 36% | 1026.1 hPa | - | - | - | - |
| 1777383802 | 6.67° C | 45% | 1026.1 hPa | - | - | - | - |
| 1777380799 | 2.78° C | 69% | 1026.4 hPa | - | - | - | - |
| 1777377803 | 0.56° C | 74% | 1026.1 hPa | - | - | - | - |
| 1777375999 | 0.56° C | 74% | 1026.1 hPa | - | - | - | - |
| 1777374202 | 0.56° C | 74% | 1026.1 hPa | - | - | - | - |
| 1777372397 | 0° C | - | 1026.1 hPa | - | - | - | - |
| 1777371800 | 0° C | - | 1026.1 hPa | - | - | - | - |
| 1777371197 | 0° C | - | 1026.1 hPa | - | - | - | - |
| 1777370598 | -2.22° C | 86% | 1026.1 hPa | - | - | - | - |
| 1777368799 | -2.22° C | 86% | 1026.1 hPa | - | - | - | - |
| 1777365201 | -1.11° C | 92% | 1026.4 hPa | - | - | - | - |
| 1777364602 | -1.11° C | 92% | 1026.4 hPa | - | - | - | - |
| 1777363999 | -1.11° C | 92% | 1026.4 hPa | - | - | - | - |
| 1777363399 | -1.11° C | 92% | 1026.4 hPa | - | - | - | - |
| 1777362802 | -1.11° C | 92% | 1026.4 hPa | - | - | - | - |
| 1777362203 | -1.11° C | 92% | 1026.4 hPa | - | - | - | - |
* Rain since midnight (hover to see other rain measurements)
** Current wind speed in m/s (hover to see current wind gust speed)